Time;durP1;ratioP1;P1;durP2;ratioP2;P2;SDS_P1;SDS_P2;PMS_P1;PMS_P2;Temp;Humidity;BMP_temperature;BMP_pressure;BME280_temperature;BME280_humidity;BME280_pressure;Samples;Min_cycle;Max_cycle;Signal;HPM_P1;HPM_P2
2022/04/09 00:01:17;;;;;;;5.10;4.00;;;;;;;2.52;78.45;99216.28;4032279;29;20049;-60
2022/04/09 00:03:20;;;;;;;7.05;4.40;;;;;;;2.50;78.05;99217.06;4033632;29;20041;-60
2022/04/09 00:05:23;;;;;;;6.50;4.88;;;;;;;2.51;77.99;99223.94;4039147;29;20080;-60
2022/04/09 00:07:27;;;;;;;9.70;5.20;;;;;;;2.49;78.24;99234.16;4027558;29;20523;-60
2022/04/09 00:09:30;;;;;;;5.70;3.85;;;;;;;2.41;78.24;99245.91;4033668;29;20302;-60
2022/04/09 00:11:33;;;;;;;5.10;3.60;;;;;;;2.38;78.63;99262.09;4034048;29;20036;-60
2022/04/09 00:13:36;;;;;;;4.25;3.22;;;;;;;2.23;78.46;99266.78;4037291;29;20037;-60
2022/04/09 00:15:39;;;;;;;5.47;3.50;;;;;;;2.17;78.36;99267.47;4033237;29;20056;-59
2022/04/09 00:17:44;;;;;;;4.57;3.35;;;;;;;2.20;78.88;99279.53;4033066;29;20127;-60
2022/04/09 00:19:48;;;;;;;6.28;3.95;;;;;;;2.31;79.02;99277.25;4035478;29;20040;-60
2022/04/09 00:21:51;;;;;;;5.88;3.58;;;;;;;2.42;78.56;99269.06;4036220;29;20156;-60
2022/04/09 00:23:54;;;;;;;5.90;3.83;;;;;;;2.50;78.54;99274.38;4037773;29;20541;-60
2022/04/09 00:25:57;;;;;;;4.60;3.13;;;;;;;2.53;77.71;99274.47;4034082;29;20044;-60
2022/04/09 00:28:00;;;;;;;7.53;3.20;;;;;;;2.60;78.52;99285.78;4036034;29;20119;-60
2022/04/09 00:30:05;;;;;;;4.22;3.00;;;;;;;2.65;78.04;99304.72;4032271;29;20129;-60
2022/04/09 00:32:08;;;;;;;4.72;3.47;;;;;;;2.61;78.43;99303.78;4033073;29;20053;-60
2022/04/09 00:34:13;;;;;;;5.60;3.95;;;;;;;2.67;78.68;99315.03;4027776;29;20571;-60
2022/04/09 00:36:16;;;;;;;5.55;3.70;;;;;;;2.63;77.77;99321.78;4033158;29;20414;-60
2022/04/09 00:38:19;;;;;;;6.82;3.72;;;;;;;2.60;78.97;99337.94;4037160;29;20042;-60
2022/04/09 00:40:25;;;;;;;3.97;2.95;;;;;;;2.57;78.48;99344.69;4039974;29;20044;-60
2022/04/09 00:42:28;;;;;;;4.72;3.40;;;;;;;2.36;78.75;99363.75;4048786;29;20067;-60
2022/04/09 00:44:31;;;;;;;6.10;3.15;;;;;;;2.32;79.41;99369.63;4029185;29;20237;-60
2022/04/09 00:46:34;;;;;;;4.45;2.95;;;;;;;2.29;79.53;99379.78;4033633;29;20135;-60
2022/04/09 00:48:37;;;;;;;5.05;3.30;;;;;;;2.29;79.61;99384.91;4047014;29;20048;-60
2022/04/09 00:50:42;;;;;;;5.07;3.00;;;;;;;2.22;79.81;99398.38;4033980;29;20040;-60
2022/04/09 00:52:48;;;;;;;6.65;3.60;;;;;;;2.21;79.95;99402.66;4037573;29;20510;-61
2022/04/09 00:54:51;;;;;;;4.10;3.33;;;;;;;2.24;80.07;99407.84;4029217;29;20033;-60
2022/04/09 00:56:58;;;;;;;5.57;4.00;;;;;;;2.28;79.66;99419.09;4018803;29;20056;-60
2022/04/09 00:59:06;;;;;;;5.97;3.30;;;;;;;2.33;79.98;99417.53;4037077;29;20061;-60
2022/04/09 01:01:09;;;;;;;5.32;3.80;;;;;;;2.26;79.71;99421.63;4035889;29;20049;-60
2022/04/09 01:03:16;;;;;;;6.72;3.63;;;;;;;2.29;80.10;99428.50;4015114;29;20574;-60
2022/04/09 01:05:21;;;;;;;5.20;3.55;;;;;;;2.25;80.45;99440.38;4043933;29;20049;-61
2022/04/09 01:07:25;;;;;;;5.47;3.88;;;;;;;2.39;79.83;99448.47;4038899;29;20105;-60
2022/04/09 01:09:28;;;;;;;5.88;3.53;;;;;;;2.46;80.08;99453.81;4037644;29;20052;-60
2022/04/09 01:11:32;;;;;;;6.07;4.03;;;;;;;2.59;79.81;99446.53;4052370;29;20090;-61
2022/04/09 01:13:36;;;;;;;5.65;4.05;;;;;;;2.66;79.51;99452.72;4033732;29;20048;-61
2022/04/09 01:15:39;;;;;;;6.28;4.55;;;;;;;2.70;78.46;99454.56;4029804;29;20041;-60
2022/04/09 01:17:42;;;;;;;5.80;4.13;;;;;;;2.72;78.59;99458.03;4029958;29;20056;-61
2022/04/09 01:19:46;;;;;;;5.45;4.05;;;;;;;2.73;78.29;99461.47;4031136;29;20167;-61
2022/04/09 01:21:49;;;;;;;5.85;4.60;;;;;;;2.78;78.63;99475.31;4047842;29;20044;-61
2022/04/09 01:23:54;;;;;;;7.28;4.85;;;;;;;2.81;78.18;99480.53;4032813;29;20037;-61
2022/04/09 01:25:59;;;;;;;7.00;4.35;;;;;;;2.78;77.90;99486.44;4033939;29;20049;-60
2022/04/09 01:28:03;;;;;;;7.07;4.65;;;;;;;2.77;77.73;99497.56;4035069;29;20045;-61
2022/04/09 01:30:07;;;;;;;5.70;3.95;;;;;;;2.77;77.81;99497.56;4033535;29;20464;-61
2022/04/09 01:32:11;;;;;;;7.68;4.72;;;;;;;2.75;77.79;99506.88;4032629;29;20133;-61
2022/04/09 01:34:17;;;;;;;6.87;4.67;;;;;;;2.77;77.69;99510.38;4049931;29;20045;-60
2022/04/09 01:36:20;;;;;;;7.15;5.10;;;;;;;2.79;77.59;99525.81;4040713;29;20048;-61
2022/04/09 01:38:22;;;;;;;7.10;5.38;;;;;;;2.78;77.97;99527.50;4036147;29;20040;-60
2022/04/09 01:40:27;;;;;;;7.80;5.07;;;;;;;2.77;77.23;99538.63;4036767;29;20089;-60
2022/04/09 01:42:31;;;;;;;8.75;5.55;;;;;;;2.74;77.35;99540.19;4039516;29;20467;-61
2022/04/09 01:44:35;;;;;;;7.25;4.72;;;;;;;2.73;77.59;99551.28;4041435;29;20048;-60
2022/04/09 01:46:44;;;;;;;12.40;6.10;;;;;;;2.71;77.29;99556.38;4037777;29;20061;-60
2022/04/09 01:48:48;;;;;;;7.65;5.38;;;;;;;2.71;77.71;99564.06;4023448;29;20060;-60
2022/04/09 01:50:51;;;;;;;8.32;5.72;;;;;;;2.74;77.50;99574.44;4042391;29;20111;-61
2022/04/09 01:52:54;;;;;;;8.43;5.47;;;;;;;2.74;77.77;99582.13;4037870;29;20060;-61
2022/04/09 01:54:57;;;;;;;7.97;5.60;;;;;;;2.77;77.97;99589.94;4043881;29;20037;-61
2022/04/09 01:57:01;;;;;;;9.45;6.35;;;;;;;2.77;77.28;99610.47;4037180;29;20281;-61
2022/04/09 01:59:04;;;;;;;10.45;6.50;;;;;;;2.78;77.60;99607.06;4036204;29;20037;-61
2022/04/09 02:01:08;;;;;;;10.90;5.70;;;;;;;2.79;77.19;99616.53;4021735;29;20479;-61
2022/04/09 02:03:11;;;;;;;8.43;5.97;;;;;;;2.76;77.63;99624.13;4035570;29;20037;-60
2022/04/09 02:05:14;;;;;;;9.65;5.63;;;;;;;2.77;77.46;99631.00;4044536;29;20068;-61
2022/04/09 02:07:20;;;;;;;7.38;5.50;;;;;;;2.83;77.33;99632.00;4037366;29;20049;-60
2022/04/09 02:09:23;;;;;;;9.27;6.10;;;;;;;2.84;77.68;99639.75;4038907;29;20076;-60
2022/04/09 02:11:26;;;;;;;9.35;6.03;;;;;;;2.88;77.84;99645.88;4038520;29;20053;-60
2022/04/09 02:13:32;;;;;;;9.77;6.60;;;;;;;2.89;77.57;99650.16;4036155;29;20042;-60
2022/04/09 02:15:35;;;;;;;8.95;5.80;;;;;;;2.87;77.31;99662.09;4031267;29;20462;-60
2022/04/09 02:17:39;;;;;;;8.98;6.15;;;;;;;2.89;77.38;99665.56;4046972;29;20093;-60
2022/04/09 02:19:42;;;;;;;11.63;6.55;;;;;;;2.89;78.03;99656.19;4024209;29;20132;-60
2022/04/09 02:21:45;;;;;;;9.13;6.28;;;;;;;2.93;77.71;99664.84;4018141;29;20053;-61
2022/04/09 02:23:48;;;;;;;9.43;5.75;;;;;;;2.90;78.11;99667.31;4033521;29;20123;-61
2022/04/09 02:25:51;;;;;;;13.45;7.07;;;;;;;2.81;79.04;99673.03;4033617;29;20404;-61
2022/04/09 02:27:54;;;;;;;14.13;8.82;;;;;;;2.76;79.16;99667.75;4040437;29;20502;-60
2022/04/09 02:30:01;;;;;;;15.38;8.95;;;;;;;2.75;78.89;99686.53;4042208;29;20402;-61
2022/04/09 02:32:07;;;;;;;11.68;8.30;;;;;;;2.78;79.73;99686.63;4036479;29;20081;-61
2022/04/09 02:34:10;;;;;;;11.95;7.82;;;;;;;2.88;79.26;99702.34;4042199;29;20047;-61
2022/04/09 02:36:13;;;;;;;10.50;8.02;;;;;;;2.95;79.03;99701.75;4032234;29;20051;-61
2022/04/09 02:38:17;;;;;;;13.85;8.05;;;;;;;2.99;78.93;99708.69;4040782;29;20554;-61
2022/04/09 02:40:21;;;;;;;9.43;7.30;;;;;;;2.99;78.81;99712.97;4024809;29;20057;-60
2022/04/09 02:42:26;;;;;;;10.18;7.07;;;;;;;3.02;78.28;99720.75;4034326;29;20133;-61
2022/04/09 02:44:30;;;;;;;13.23;8.73;;;;;;;3.06;78.44;99725.19;4036186;29;20052;-61
2022/04/09 02:46:36;;;;;;;10.65;8.18;;;;;;;3.05;77.85;99729.47;4033077;29;20495;-61
2022/04/09 02:48:41;;;;;;;11.07;8.10;;;;;;;3.05;77.61;99728.56;4037114;29;20048;-60
2022/04/09 02:50:45;;;;;;;9.93;7.93;;;;;;;3.05;78.10;99738.84;4038897;29;20119;-60
2022/04/09 02:52:48;;;;;;;12.73;8.63;;;;;;;3.08;77.29;99732.13;4052860;29;20040;-60
2022/04/09 02:54:51;;;;;;;13.82;9.15;;;;;;;3.09;77.61;99738.97;4045000;29;20100;-61
2022/04/09 02:56:55;;;;;;;10.85;8.73;;;;;;;3.11;77.45;99754.44;4044423;29;20037;-61
2022/04/09 02:59:03;;;;;;;13.15;9.43;;;;;;;3.02;77.87;99755.00;4054684;29;20574;-61
2022/04/09 03:01:07;;;;;;;12.80;8.90;;;;;;;3.03;77.71;99759.31;4036525;29;20456;-60
2022/04/09 03:03:12;;;;;;;11.38;8.40;;;;;;;2.99;77.73;99770.31;4031159;29;20518;-61
2022/04/09 03:05:23;;;;;;;12.13;8.55;;;;;;;2.94;78.60;99777.00;4034144;29;20064;-61
2022/04/09 03:07:26;;;;;;;12.68;9.15;;;;;;;2.96;78.19;99772.78;4038188;29;20407;-60
2022/04/09 03:09:29;;;;;;;18.05;10.43;;;;;;;2.94;77.56;99788.13;4043244;29;20420;-61
2022/04/09 03:11:31;;;;;;;15.13;9.88;;;;;;;2.92;78.54;99788.91;4028784;29;20075;-61
2022/04/09 03:13:34;;;;;;;12.38;8.93;;;;;;;2.84;77.89;99790.34;4040780;29;20430;-61
2022/04/09 03:15:37;;;;;;;13.57;9.68;;;;;;;2.78;78.35;99798.72;4038919;29;20040;-61
2022/04/09 03:17:41;;;;;;;14.88;9.38;;;;;;;2.71;78.95;99802.75;4053586;29;20596;-61
2022/04/09 03:19:47;;;;;;;14.65;10.55;;;;;;;2.64;78.94;99807.63;4024177;29;20052;-60
2022/04/09 03:21:50;;;;;;;18.48;11.43;;;;;;;2.68;78.67;99812.91;4028346;29;20075;-61
2022/04/09 03:23:54;;;;;;;14.30;10.07;;;;;;;2.64;79.06;99808.47;4024834;29;20404;-61
2022/04/09 03:25:57;;;;;;;14.27;9.45;;;;;;;2.66;79.51;99819.69;4036520;29;20032;-61
2022/04/09 03:28:08;;;;;;;15.07;10.63;;;;;;;2.69;78.63;99827.50;4024401;29;20469;-61
2022/04/09 03:30:12;;;;;;;;;;;;;;;2.64;78.86;99829.00;4049438;29;20053;-61
2022/04/09 03:32:17;;;;;;;16.20;10.07;;;;;;;2.72;78.74;99826.72;4021357;29;19965;-61
2022/04/09 03:34:20;;;;;;;15.43;10.38;;;;;;;2.77;78.78;99828.66;4038402;29;20170;-61
2022/04/09 03:36:24;;;;;;;12.23;8.85;;;;;;;2.76;78.72;99836.25;4040487;29;20037;-61
2022/04/09 03:38:27;;;;;;;17.20;10.40;;;;;;;2.74;78.51;99846.47;4038658;29;20037;-60
2022/04/09 03:40:33;;;;;;;12.77;9.57;;;;;;;2.72;78.93;99843.00;4030702;29;20160;-60
2022/04/09 03:42:39;;;;;;;12.43;8.40;;;;;;;2.70;78.34;99856.59;4050890;29;20055;-62
2022/04/09 03:44:42;;;;;;;17.10;9.43;;;;;;;2.69;78.58;99858.28;4042188;29;20046;-60
2022/04/09 03:46:45;;;;;;;15.02;9.93;;;;;;;2.74;78.72;99856.75;4035253;29;20407;-61
2022/04/09 03:48:52;;;;;;;14.05;8.98;;;;;;;2.78;78.05;99863.75;4037334;29;20044;-61
2022/04/09 03:50:55;;;;;;;15.55;9.27;;;;;;;2.85;78.25;99866.53;4038080;29;20053;-60
2022/04/09 03:53:01;;;;;;;14.60;10.02;;;;;;;2.90;78.19;99877.84;4031793;29;20037;-61
2022/04/09 03:55:04;;;;;;;15.18;10.05;;;;;;;2.92;78.02;99882.22;4033999;29;20044;-61
2022/04/09 03:57:09;;;;;;;11.88;8.93;;;;;;;2.94;77.43;99884.84;4038705;29;20037;-61
2022/04/09 03:59:20;;;;;;;14.65;10.80;;;;;;;2.95;77.33;99890.03;4030860;29;20041;-61
2022/04/09 04:01:27;;;;;;;13.77;9.00;;;;;;;2.91;77.63;99898.44;4046104;29;20089;-61
2022/04/09 04:03:34;;;;;;;12.73;9.45;;;;;;;2.92;77.15;99895.06;4041801;29;20127;-61
2022/04/09 04:05:38;;;;;;;14.73;10.57;;;;;;;2.95;77.22;99902.00;4032691;29;20123;-61
2022/04/09 04:07:43;;;;;;;14.18;9.07;;;;;;;2.99;77.31;99916.66;4038770;29;20033;-61
2022/04/09 04:09:48;;;;;;;12.98;8.38;;;;;;;2.96;77.57;99917.47;4034693;29;20037;-61
2022/04/09 04:11:51;;;;;;;12.98;9.40;;;;;;;2.99;77.53;99920.94;4036205;29;20459;-61
2022/04/09 04:13:57;;;;;;;12.60;9.13;;;;;;;2.96;77.68;99925.16;4038023;29;20128;-61
2022/04/09 04:16:03;;;;;;;13.40;9.43;;;;;;;2.93;76.93;99929.28;4051388;29;20055;-60
2022/04/09 04:18:08;;;;;;;15.75;9.55;;;;;;;2.94;77.35;99937.06;4036255;29;20453;-61
2022/04/09 04:20:14;;;;;;;17.17;9.23;;;;;;;2.91;77.10;99946.34;4024947;29;20068;-61
2022/04/09 04:22:19;;;;;;;;;;;;;;;2.77;77.35;99946.72;4028567;29;20049;-60
2022/04/09 04:24:23;;;;;;;12.52;9.50;;;;;;;2.82;77.62;99951.13;4028678;29;19931;-61
2022/04/09 04:26:29;;;;;;;16.17;10.73;;;;;;;2.85;78.18;99956.38;4030716;29;20575;-60
2022/04/09 04:28:37;;;;;;;16.58;10.48;;;;;;;2.86;77.66;99958.13;4018584;29;20046;-61
2022/04/09 04:30:41;;;;;;;13.95;10.40;;;;;;;2.85;77.73;99964.06;4024073;29;20523;-61
2022/04/09 04:32:44;;;;;;;13.20;9.57;;;;;;;2.85;77.27;99964.97;4015814;29;20054;-61
2022/04/09 04:34:49;;;;;;;16.77;8.35;;;;;;;2.86;77.18;99969.28;4030141;29;20044;-60
2022/04/09 04:36:52;;;;;;;17.83;11.20;;;;;;;2.88;77.64;99967.63;4028643;29;20402;-61
2022/04/09 04:38:55;;;;;;;17.17;10.38;;;;;;;2.89;77.69;99971.97;4032563;29;20484;-61
2022/04/09 04:41:00;;;;;;;19.25;10.45;;;;;;;2.86;76.93;99978.66;4029918;29;20045;-61
2022/04/09 04:43:05;;;;;;;;;;;;;;;2.63;78.57;99976.13;4027765;29;20045;-61
2022/04/09 04:45:10;;;;;;;14.77;9.55;;;;;;;2.66;77.70;99978.78;4030349;29;19974;-61
2022/04/09 04:47:12;;;;;;;16.17;9.68;;;;;;;2.62;77.38;99980.34;4030346;29;20128;-60
2022/04/09 04:49:15;;;;;;;14.82;9.07;;;;;;;2.70;77.71;99983.22;4029316;29;20098;-61
2022/04/09 04:51:20;;;;;;;12.48;8.77;;;;;;;2.73;77.94;99983.34;4033853;29;20045;-61
2022/04/09 04:53:23;;;;;;;14.07;8.82;;;;;;;2.78;77.44;100001.47;4029617;29;20045;-61
2022/04/09 04:55:31;;;;;;;13.35;9.38;;;;;;;2.79;77.59;99998.13;4045716;29;20151;-61
2022/04/09 04:57:40;;;;;;;11.70;7.80;;;;;;;2.71;78.16;100000.38;4014392;29;20068;-61
2022/04/09 04:59:44;;;;;;;14.90;7.80;;;;;;;2.57;78.58;100020.38;4033283;29;20422;-61
2022/04/09 05:01:47;;;;;;;11.75;7.40;;;;;;;2.47;78.59;100017.38;4014907;29;20041;-61
2022/04/09 05:03:51;;;;;;;10.35;7.40;;;;;;;2.42;77.75;100032.59;4032247;29;20115;-61
2022/04/09 05:06:07;;;;;;;10.77;7.63;;;;;;;2.37;78.65;100029.84;4046285;29;20045;-61
2022/04/09 05:08:11;;;;;;;13.30;6.82;;;;;;;2.43;78.60;100045.47;4032097;29;20049;-61
2022/04/09 05:10:15;;;;;;;11.20;6.55;;;;;;;2.41;78.58;100041.97;4032289;29;20041;-61
2022/04/09 05:12:18;;;;;;;12.52;6.20;;;;;;;2.39;78.20;100048.72;4044151;29;20577;-61
2022/04/09 05:14:22;;;;;;;14.40;6.28;;;;;;;2.38;78.25;100049.56;4029862;29;20044;-61
2022/04/09 05:16:31;;;;;;;11.57;6.10;;;;;;;2.42;78.52;100051.44;4027880;29;20575;-61
2022/04/09 05:18:39;;;;;;;13.43;6.47;;;;;;;2.38;78.81;100049.56;4023837;29;20029;-61
2022/04/09 05:20:42;;;;;;;11.55;6.22;;;;;;;2.39;78.58;100064.09;4032537;29;20079;-61
2022/04/09 05:22:48;;;;;;;12.30;6.68;;;;;;;2.38;78.51;100067.50;4024566;29;20053;-61
2022/04/09 05:24:53;;;;;;;12.27;7.47;;;;;;;2.43;79.12;100072.81;4029785;29;20132;-61
2022/04/09 05:26:56;;;;;;;11.82;5.88;;;;;;;2.36;78.64;100069.13;4034779;29;20045;-60
2022/04/09 05:29:02;;;;;;;13.05;7.43;;;;;;;2.33;78.69;100079.25;4033677;29;20064;-61
2022/04/09 05:31:06;;;;;;;20.38;8.65;;;;;;;2.30;78.89;100076.56;4031826;29;20086;-61
2022/04/09 05:33:11;;;;;;;17.95;8.15;;;;;;;2.29;79.55;100073.94;4033894;29;20041;-61
2022/04/09 05:35:18;;;;;;;11.02;8.07;;;;;;;2.26;79.95;100082.38;4032344;29;20044;-61
2022/04/09 05:37:28;;;;;;;14.13;8.60;;;;;;;2.26;79.42;100095.19;4041207;29;20095;-61
2022/04/09 05:39:31;;;;;;;12.77;8.55;;;;;;;2.32;79.72;100092.03;4043782;29;20051;-61
2022/04/09 05:41:35;;;;;;;11.48;7.82;;;;;;;2.33;79.18;100099.78;4044288;29;20522;-61
2022/04/09 05:43:39;;;;;;;12.02;8.43;;;;;;;2.38;79.30;100102.53;4032431;29;20412;-61
2022/04/09 05:45:42;;;;;;;14.98;8.45;;;;;;;2.30;79.07;100109.06;4037227;29;20037;-61
2022/04/09 05:47:47;;;;;;;16.05;8.65;;;;;;;2.36;78.76;100117.84;4037923;29;20506;-61
2022/04/09 05:49:58;;;;;;;17.05;8.65;;;;;;;2.39;78.87;100120.53;4040389;29;20097;-61
2022/04/09 05:52:02;;;;;;;16.48;8.30;;;;;;;2.40;79.19;100130.00;4035364;29;20052;-61
2022/04/09 05:54:05;;;;;;;13.40;7.65;;;;;;;2.48;78.47;100129.44;4045740;29;20044;-60
2022/04/09 05:56:10;;;;;;;12.98;9.13;;;;;;;2.44;78.70;100126.75;4037457;29;20119;-61
2022/04/09 05:58:17;;;;;;;15.90;8.90;;;;;;;2.49;78.22;100133.78;4033897;29;20141;-60
2022/04/09 06:00:23;;;;;;;15.38;8.07;;;;;;;2.55;78.77;100134.03;4032037;29;20060;-60
2022/04/09 06:02:41;;;;;;;14.60;8.90;;;;;;;2.51;78.10;100144.97;4029393;29;20037;-61
2022/04/09 06:04:57;;;;;;;13.52;8.50;;;;;;;2.48;78.47;100157.66;4044263;29;20131;-61
2022/04/09 06:07:01;;;;;;;13.73;8.35;;;;;;;2.49;77.89;100151.75;4029519;29;20041;-61
2022/04/09 06:09:05;;;;;;;;;;;;;;;2.39;78.03;100156.47;4031421;29;20045;-60
2022/04/09 06:11:21;;;;;;;14.93;8.30;;;;;;;2.39;78.30;100161.59;4043648;29;20038;-61
2022/04/09 06:13:27;;;;;;;15.52;9.10;;;;;;;2.43;78.91;100170.31;4025235;29;20041;-60
2022/04/09 06:15:30;;;;;;;12.70;8.15;;;;;;;2.49;78.47;100167.13;4026305;29;20042;-61
2022/04/09 06:17:40;;;;;;;16.20;8.73;;;;;;;2.56;77.86;100170.00;4029097;29;20049;-61
2022/04/09 06:19:44;;;;;;;12.27;7.65;;;;;;;2.62;77.95;100174.53;4032608;29;20127;-61
2022/04/09 06:21:48;;;;;;;14.80;9.53;;;;;;;2.59;77.25;100182.09;4042090;29;20037;-61
2022/04/09 06:23:56;;;;;;;17.98;7.72;;;;;;;2.56;77.93;100187.97;4034942;29;20056;-61
2022/04/09 06:26:00;;;;;;;;;;;;;;;2.57;78.47;100186.28;4042096;29;20055;-61
2022/04/09 06:28:08;;;;;;;13.30;8.38;;;;;;;2.71;78.22;100190.28;4034520;29;19932;-61
2022/04/09 06:30:14;;;;;;;15.90;8.70;;;;;;;2.81;78.58;100200.97;4032992;29;20116;-60
2022/04/09 06:32:26;;;;;;;12.82;7.38;;;;;;;2.90;78.01;100201.31;4030481;29;20284;-60
2022/04/09 06:34:29;;;;;;;15.43;8.90;;;;;;;2.87;77.35;100201.22;4038588;29;20050;-60
2022/04/09 06:36:37;;;;;;;22.40;7.60;;;;;;;2.87;77.73;100207.22;4037242;29;20052;-60
2022/04/09 06:38:42;;;;;;;14.27;8.65;;;;;;;2.89;77.03;100210.72;4043314;29;20039;-61
2022/04/09 06:40:52;;;;;;;18.45;7.95;;;;;;;2.96;77.98;100216.97;4039762;29;20117;-61
2022/04/09 06:43:02;;;;;;;17.23;8.25;;;;;;;3.03;78.29;100216.41;4014046;29;20041;-60
2022/04/09 06:45:23;;;;;;;12.93;7.90;;;;;;;3.07;78.04;100220.88;4037926;29;20072;-60
2022/04/09 06:47:49;;;;;;;20.10;7.68;;;;;;;3.05;76.92;100221.59;4035553;29;20539;-60
2022/04/09 06:49:53;;;;;;;13.23;7.18;;;;;;;3.13;76.83;100231.38;4029296;29;20044;-61
2022/04/09 06:51:58;;;;;;;12.23;6.93;;;;;;;3.11;77.72;100227.88;4035990;29;20502;-61
2022/04/09 06:54:10;;;;;;;12.55;6.88;;;;;;;3.09;77.47;100234.63;4029547;29;20489;-58
2022/04/09 06:56:14;;;;;;;12.85;7.43;;;;;;;3.17;77.46;100239.22;4033341;29;20093;-58
2022/04/09 06:58:17;;;;;;;19.38;9.32;;;;;;;3.25;77.77;100235.25;4015175;29;20383;-58
2022/04/09 07:00:20;;;;;;;13.32;7.50;;;;;;;3.22;77.31;100243.72;4034004;29;20040;-58
2022/04/09 07:02:24;;;;;;;11.77;7.65;;;;;;;3.34;77.33;100245.91;4042107;29;20040;-58
2022/04/09 07:04:27;;;;;;;13.82;7.93;;;;;;;3.39;77.49;100253.78;4029027;29;20105;-58
2022/04/09 07:06:30;;;;;;;12.00;7.15;;;;;;;3.38;77.05;100249.47;4012119;29;20076;-58
2022/04/09 07:08:33;;;;;;;15.48;8.02;;;;;;;3.41;76.18;100250.47;4026539;29;20116;-59
2022/04/09 07:10:37;;;;;;;14.55;9.02;;;;;;;3.59;76.90;100254.56;4029347;29;20051;-58
2022/04/09 07:12:40;;;;;;;11.90;7.25;;;;;;;3.71;77.12;100256.75;4040243;29;20044;-60
2022/04/09 07:14:44;;;;;;;12.13;8.27;;;;;;;3.84;77.19;100259.84;4028201;29;20041;-60
2022/04/09 07:16:47;;;;;;;13.30;7.80;;;;;;;3.94;77.27;100270.47;4025435;29;20411;-59
2022/04/09 07:18:50;;;;;;;21.38;10.50;;;;;;;4.05;76.86;100261.47;4025838;29;20038;-59
2022/04/09 07:20:55;;;;;;;15.95;9.38;;;;;;;4.13;76.67;100266.91;4025383;29;20093;-60
2022/04/09 07:22:58;;;;;;;15.25;8.43;;;;;;;4.20;76.84;100268.88;4027657;29;20041;-62
2022/04/09 07:25:01;;;;;;;13.43;7.55;;;;;;;4.22;76.54;100274.97;4025919;29;20137;-58
2022/04/09 07:27:05;;;;;;;16.90;7.95;;;;;;;4.30;76.06;100276.13;4024298;29;20037;-59
2022/04/09 07:29:08;;;;;;;13.70;7.88;;;;;;;4.26;76.56;100278.53;4043399;29;20152;-59
2022/04/09 07:31:11;;;;;;;20.77;9.68;;;;;;;4.25;76.40;100276.75;4024894;29;20161;-60
2022/04/09 07:33:14;;;;;;;10.60;7.32;;;;;;;4.34;75.55;100283.13;4035449;29;20065;-72
2022/04/09 07:35:17;;;;;;;11.40;7.32;;;;;;;4.24;74.71;100282.75;4023072;29;20171;-62
2022/04/09 07:37:22;;;;;;;10.95;7.28;;;;;;;4.35;76.05;100284.91;4026690;29;20043;-63
2022/04/09 07:39:25;;;;;;;14.50;8.15;;;;;;;4.39;75.77;100285.00;4028475;29;20040;-63
2022/04/09 07:41:28;;;;;;;14.77;8.60;;;;;;;4.45;76.13;100274.91;4027360;29;20071;-63
2022/04/09 07:43:32;;;;;;;15.32;7.18;;;;;;;4.39;74.74;100287.56;4033596;29;20041;-62
2022/04/09 07:45:35;;;;;;;14.82;8.02;;;;;;;4.24;74.60;100290.47;4023355;29;20045;-63
2022/04/09 07:47:38;;;;;;;19.40;8.30;;;;;;;4.35;75.28;100291.72;4030279;29;20136;-64
2022/04/09 07:49:44;;;;;;;12.13;7.97;;;;;;;4.55;75.60;100293.31;4025613;29;20168;-62
2022/04/09 07:51:47;;;;;;;13.43;8.43;;;;;;;4.76;74.89;100286.31;4025323;29;20041;-64
2022/04/09 07:53:50;;;;;;;12.90;7.90;;;;;;;4.82;75.45;100287.41;4025109;29;20075;-63
2022/04/09 07:55:53;;;;;;;12.98;8.48;;;;;;;4.92;75.43;100292.88;4031272;29;20044;-64
2022/04/09 07:57:56;;;;;;;11.60;7.88;;;;;;;5.12;73.43;100296.13;4031217;29;20496;-64
2022/04/09 08:00:00;;;;;;;11.50;7.13;;;;;;;5.16;73.55;100308.28;4037441;29;20056;-64
2022/04/09 08:02:13;;;;;;;11.82;6.72;;;;;;;5.09;73.59;100307.19;4026343;29;20049;-64
2022/04/09 08:04:16;;;;;;;15.23;8.25;;;;;;;4.94;73.42;100306.69;4025097;29;20214;-65
2022/04/09 08:06:19;;;;;;;15.82;7.70;;;;;;;4.64;72.91;100308.22;4024673;29;20043;-62
2022/04/09 08:08:21;;;;;;;16.52;9.30;;;;;;;4.62;74.27;100314.16;4031150;29;20571;-63
2022/04/09 08:10:24;;;;;;;12.73;7.32;;;;;;;4.68;74.37;100310.09;4027374;29;20033;-64
2022/04/09 08:12:27;;;;;;;17.17;7.45;;;;;;;4.74;74.40;100313.72;4026194;29;20567;-63
2022/04/09 08:14:32;;;;;;;18.15;8.60;;;;;;;4.79;74.60;100313.06;4029760;29;20072;-64
2022/04/09 08:16:38;;;;;;;13.48;7.28;;;;;;;4.86;73.77;100316.69;4024629;29;20521;-64
2022/04/09 08:18:40;;;;;;;18.63;8.23;;;;;;;4.80;74.30;100325.09;4026889;29;20052;-65
2022/04/09 08:20:43;;;;;;;19.75;8.45;;;;;;;4.87;74.11;100321.03;4023029;29;20065;-66
2022/04/09 08:22:51;;;;;;;14.80;6.65;;;;;;;4.98;71.66;100318.81;4023282;29;20753;-62
2022/04/09 08:24:54;;;;;;;13.15;7.05;;;;;;;4.81;72.42;100321.69;4010344;29;20041;-61
2022/04/09 08:26:57;;;;;;;14.02;6.47;;;;;;;4.78;72.05;100318.16;4023258;29;20068;-61
2022/04/09 08:29:01;;;;;;;14.35;6.88;;;;;;;4.83;72.37;100317.50;4024120;29;20052;-61
2022/04/09 08:31:06;;;;;;;14.32;7.45;;;;;;;5.04;72.37;100311.34;4024655;29;20478;-61
2022/04/09 08:33:13;;;;;;;15.18;7.72;;;;;;;5.16;72.31;100322.03;4021221;29;20771;-62
2022/04/09 08:35:16;;;;;;;12.50;6.82;;;;;;;5.39;71.89;100321.94;4025780;29;20045;-62
2022/04/09 08:37:18;;;;;;;16.15;6.68;;;;;;;5.53;70.59;100325.81;4028718;29;20503;-62
2022/04/09 08:39:21;;;;;;;14.30;7.25;;;;;;;5.56;70.15;100323.38;4033696;29;20124;-67
2022/04/09 08:41:25;;;;;;;14.45;6.63;;;;;;;5.59;69.51;100331.19;4029221;29;20097;-63
2022/04/09 08:43:29;;;;;;;12.40;6.50;;;;;;;5.60;69.22;100332.06;4032268;29;20049;-64
2022/04/09 08:45:35;;;;;;;10.35;6.32;;;;;;;5.55;69.77;100334.50;4027470;29;20362;-61
2022/04/09 08:47:42;;;;;;;13.90;6.07;;;;;;;5.60;69.29;100330.34;4022028;29;20041;-62
2022/04/09 08:49:47;;;;;;;11.88;6.55;;;;;;;5.58;69.40;100334.59;4029431;29;20037;-62
2022/04/09 08:51:51;;;;;;;15.57;6.55;;;;;;;5.57;69.77;100335.41;4027726;29;20144;-62
2022/04/09 08:53:56;;;;;;;17.45;6.75;;;;;;;5.54;68.92;100331.88;4029883;29;20132;-61
2022/04/09 08:55:59;;;;;;;;;;;;;;;5.46;69.66;100341.06;4031939;29;20041;-62
2022/04/09 08:58:02;;;;;;;12.45;6.88;;;;;;;5.52;70.61;100344.72;4053012;29;19978;-62
2022/04/09 09:00:07;;;;;;;17.63;7.05;;;;;;;5.65;70.00;100339.94;4030005;29;20058;-62
2022/04/09 09:02:10;;;;;;;16.35;6.93;;;;;;;5.72;69.95;100341.91;4029830;29;20527;-62
2022/04/09 09:04:13;;;;;;;14.88;5.43;;;;;;;5.79;69.79;100343.84;4029227;29;20033;-62
2022/04/09 09:06:29;;;;;;;13.32;5.22;;;;;;;5.75;69.45;100348.03;4045638;29;20036;-62
2022/04/09 09:08:41;;;;;;;13.77;4.78;;;;;;;6.01;67.80;100345.41;4029923;29;20419;-62
2022/04/09 09:10:44;;;;;;;13.70;6.35;;;;;;;6.00;68.99;100348.84;4029590;29;20042;-62
2022/04/09 09:12:57;;;;;;;14.20;4.65;;;;;;;5.98;68.09;100349.63;4036276;29;20049;-62
2022/04/09 09:15:05;;;;;;;12.38;4.18;;;;;;;6.07;66.90;100352.47;4032821;29;20449;-62
2022/04/09 09:17:08;;;;;;;16.13;4.57;;;;;;;6.23;67.61;100354.69;4032579;29;20038;-62
2022/04/09 09:19:11;;;;;;;15.18;5.18;;;;;;;6.36;68.11;100355.06;4033098;29;20575;-62
2022/04/09 09:21:16;;;;;;;11.38;4.25;;;;;;;6.41;66.23;100356.06;4027184;29;20049;-61
2022/04/09 09:23:24;;;;;;;10.00;4.20;;;;;;;6.32;66.34;100363.53;4028667;29;20045;-62
2022/04/09 09:25:27;;;;;;;12.73;4.05;;;;;;;6.32;66.98;100358.38;4036988;29;20047;-62
2022/04/09 09:27:30;;;;;;;13.38;4.65;;;;;;;6.37;66.53;100365.44;4030696;29;20044;-62
2022/04/09 09:29:35;;;;;;;13.10;5.03;;;;;;;6.26;66.13;100362.56;4045424;29;20483;-62
2022/04/09 09:31:41;;;;;;;;;;;;;;;6.19;65.38;100370.94;4031459;29;20052;-62
2022/04/09 09:33:48;;;;;;;12.02;4.07;;;;;;;6.19;66.58;100375.19;4031338;29;19942;-62
2022/04/09 09:36:09;;;;;;;12.48;4.50;;;;;;;6.24;65.83;100376.22;4029082;29;20419;-64
2022/04/09 09:38:20;;;;;;;13.25;4.85;;;;;;;6.36;65.20;100373.16;4029032;29;20037;-64
2022/04/09 09:40:33;;;;;;;9.35;3.42;;;;;;;6.46;66.14;100375.16;4030463;29;20072;-64
2022/04/09 09:42:36;;;;;;;8.77;3.75;;;;;;;6.51;65.27;100368.41;4031120;29;20065;-64
2022/04/09 09:44:44;;;;;;;11.80;3.47;;;;;;;6.65;64.89;100376.56;4031030;29;20044;-64
2022/04/09 09:46:49;;;;;;;11.00;4.10;;;;;;;6.64;64.83;100386.03;4029131;29;20457;-64